Ever Ursula — 3FCB9 — position and weather

sailwx.info

Track history (hours):
 
Tides and Currents Weather Stations Pressure Air Temp Water Temp Dewpoint Dewpoint Depression Visibility Wind Speed Wind Dir Waves Ship Positions

Ever Ursula

Last reported at 2018-Feb-18 08:57 UTC. Time now 2018-Feb-21 05:41 UTC.
Position N 31°05' E 122°34'.

Type: Cargo ship. MMSI: 357737000.

Date/timePositionNaut miles runAvg speedWind from/ knotsBaromVisibWave heightAir tempDewpointWater temp
2018-Feb-18 08:57N 31°05' E 122°34'712.7
2018-Feb-18 08:25N 31°06' E 122°27'1913.2
2018-Feb-18 07:00N 31°13' E 122°06'612.0
2018-Feb-18 06:29N 31°15' E 121°59'510.7
2018-Feb-18 06:00N 31°16' E 121°53'510.2
2018-Feb-18 05:30N 31°18' E 121°48'510.2
2018-Feb-18 05:00N 31°19' E 121°42'2 0.1
2018-Feb-17 16:44N 31°21' E 121°40'2 9.5
2018-Feb-17 16:29N 31°20' E 121°43'511.0
2018-Feb-17 15:59N 31°17' E 121°49'511.2
2018-Feb-17 15:30N 31°16' E 121°55'510.6
2018-Feb-17 15:00N 31°15' E 122°01'510.6
2018-Feb-17 14:30N 31°13' E 122°07'510.6
2018-Feb-17 14:00N 31°10' E 122°12'4 8.6
2018-Feb-17 13:30N 31°08' E 122°16'4 8.4
2018-Feb-17 13:00N 31°06' E 122°20'5 9.4
2018-Feb-17 12:31N 31°07' E 122°26'710.0
2018-Feb-17 11:50N 31°07' E 122°34'438 9.1
2018-Feb-15 11:51N 24°27' E 119°10'615.2
2018-Feb-15 11:27N 24°24' E 119°05'714.9
2018-Feb-15 11:00N 24°20' E 118°59'1015.0
2018-Feb-15 10:22N 24°14' E 118°50'615.1
2018-Feb-15 09:59N 24°10' E 118°46'714.6
2018-Feb-15 09:30N 24°05' E 118°41'713.9
2018-Feb-15 09:00N 24°00' E 118°35'913.8
2018-Feb-15 08:22N 23°55' E 118°28'513.5
2018-Feb-15 08:00N 23°52' E 118°23'713.5
2018-Feb-15 07:30N 23°47' E 118°18'713.2
2018-Feb-15 07:00N 23°43' E 118°12'813.1
2018-Feb-15 06:24N 23°38' E 118°06'513.2
2018-Feb-15 06:00N 23°35' E 118°01'813.4
2018-Feb-15 05:26N 23°30' E 117°55'715.1
2018-Feb-15 04:57N 23°25' E 117°48'67 1.9
2018-Feb-13 17:02N 22°19' E 117°35'117.1
2018-Feb-13 16:58N 22°19' E 117°36'11817.3
2018-Feb-13 10:10N 22°28' E 119°43'415.4
2018-Feb-13 09:55N 22°28' E 119°47'614.7
2018-Feb-13 09:30N 22°29' E 119°54'612.7
2018-Feb-13 09:00N 22°30' E 120°00'611.6
2018-Feb-13 08:30N 22°31' E 120°07'611.2
2018-Feb-13 08:00N 22°32' E 120°12'612.5
2018-Feb-13 07:30N 22°33' E 120°19'0 0.5
2018-Feb-13 07:00N 22°33' E 120°19'0 0.0
2018-Feb-13 06:30N 22°33' E 120°19'0 0.0
2018-Feb-13 06:00N 22°33' E 120°19'0 0.0
2018-Feb-13 05:30N 22°33' E 120°19'0 0.0
2018-Feb-13 05:00N 22°33' E 120°19'0 0.0
2018-Feb-13 04:28N 22°33' E 120°19'0 0.0
2018-Feb-13 03:58N 22°33' E 120°19'0 0.0
2018-Feb-13 03:28N 22°33' E 120°19'0 0.0
2018-Feb-13 02:58N 22°33' E 120°19'0 0.0
2018-Feb-13 02:28N 22°33' E 120°19'0 0.0
2018-Feb-13 01:58N 22°33' E 120°19'0 0.0
2018-Feb-13 01:25N 22°33' E 120°19'0 0.1
2018-Feb-13 01:00N 22°33' E 120°19'0 0.1
2018-Feb-13 00:30N 22°33' E 120°19'0 0.0
2018-Feb-13 00:00N 22°33' E 120°19'0 0.0
2018-Feb-12 23:30N 22°33' E 120°19'2 3.9
2018-Feb-12 23:01N 22°33' E 120°17'4 8.5
2018-Feb-12 22:30N 22°31' E 120°13'4 7.1
2018-Feb-12 22:00N 22°34' E 120°11'611.7
2018-Feb-12 21:30N 22°39' E 120°07'611.2
2018-Feb-12 21:00N 22°44' E 120°04'510.9
2018-Feb-12 20:30N 22°48' E 120°01'510.6
2018-Feb-12 20:00N 22°53' E 119°58'510.7
2018-Feb-12 19:30N 22°58' E 119°55'510.2
2018-Feb-12 19:00N 23°03' E 119°54'610.5
2018-Feb-12 18:26N 23°09' E 119°54'511.7
2018-Feb-12 17:59N 23°14' E 119°54'814.2
2018-Feb-12 17:25N 23°22' E 119°53'715.0
2018-Feb-12 16:59N 23°28' E 119°53'715.0
2018-Feb-12 16:30N 23°36' E 119°53'714.6
2018-Feb-12 16:00N 23°43' E 119°52'714.5
2018-Feb-12 15:31N 23°50' E 119°52'7513.6
2018-Feb-12 09:57N 24°58' E 120°27'2613.8
2018-Feb-12 08:05N 25°21' E 120°41'114.5
2018-Feb-12 08:00N 25°22' E 120°42'63713.2
2018-Feb-10 07:48N 35°59' E 120°32'  
Track history (hours):
 
Tides and Currents Weather Stations Pressure Air Temp Water Temp Dewpoint Dewpoint Depression Visibility Wind Speed Wind Dir Waves Ship Positions

Ever Ursula

Last reported at 2018-Feb-18 08:57 UTC. Time now 2018-Feb-21 05:41 UTC.
Position N 31°05' E 122°34'.

Type: Cargo ship. MMSI: 357737000.

Date/timePositionNaut miles runAvg speedWind from/ knotsBaromVisibWave heightAir tempDewpointWater temp
2018-Feb-18 08:57N 31°05' E 122°34'712.7
2018-Feb-18 08:25N 31°06' E 122°27'1913.2
2018-Feb-18 07:00N 31°13' E 122°06'612.0
2018-Feb-18 06:29N 31°15' E 121°59'510.7
2018-Feb-18 06:00N 31°16' E 121°53'510.2
2018-Feb-18 05:30N 31°18' E 121°48'510.2
2018-Feb-18 05:00N 31°19' E 121°42'2 0.1
2018-Feb-17 16:44N 31°21' E 121°40'2 9.5
2018-Feb-17 16:29N 31°20' E 121°43'511.0
2018-Feb-17 15:59N 31°17' E 121°49'511.2
2018-Feb-17 15:30N 31°16' E 121°55'510.6
2018-Feb-17 15:00N 31°15' E 122°01'510.6
2018-Feb-17 14:30N 31°13' E 122°07'510.6
2018-Feb-17 14:00N 31°10' E 122°12'4 8.6
2018-Feb-17 13:30N 31°08' E 122°16'4 8.4
2018-Feb-17 13:00N 31°06' E 122°20'5 9.4
2018-Feb-17 12:31N 31°07' E 122°26'710.0
2018-Feb-17 11:50N 31°07' E 122°34'438 9.1
2018-Feb-15 11:51N 24°27' E 119°10'615.2
2018-Feb-15 11:27N 24°24' E 119°05'714.9
2018-Feb-15 11:00N 24°20' E 118°59'1015.0
2018-Feb-15 10:22N 24°14' E 118°50'615.1
2018-Feb-15 09:59N 24°10' E 118°46'714.6
2018-Feb-15 09:30N 24°05' E 118°41'713.9
2018-Feb-15 09:00N 24°00' E 118°35'913.8
2018-Feb-15 08:22N 23°55' E 118°28'513.5
2018-Feb-15 08:00N 23°52' E 118°23'713.5
2018-Feb-15 07:30N 23°47' E 118°18'713.2
2018-Feb-15 07:00N 23°43' E 118°12'813.1
2018-Feb-15 06:24N 23°38' E 118°06'513.2
2018-Feb-15 06:00N 23°35' E 118°01'813.4
2018-Feb-15 05:26N 23°30' E 117°55'715.1
2018-Feb-15 04:57N 23°25' E 117°48'67 1.9
2018-Feb-13 17:02N 22°19' E 117°35'117.1
2018-Feb-13 16:58N 22°19' E 117°36'11817.3
2018-Feb-13 10:10N 22°28' E 119°43'415.4
2018-Feb-13 09:55N 22°28' E 119°47'614.7
2018-Feb-13 09:30N 22°29' E 119°54'612.7
2018-Feb-13 09:00N 22°30' E 120°00'611.6
2018-Feb-13 08:30N 22°31' E 120°07'611.2
2018-Feb-13 08:00N 22°32' E 120°12'612.5
2018-Feb-13 07:30N 22°33' E 120°19'0 0.5
2018-Feb-13 07:00N 22°33' E 120°19'0 0.0
2018-Feb-13 06:30N 22°33' E 120°19'0 0.0
2018-Feb-13 06:00N 22°33' E 120°19'0 0.0
2018-Feb-13 05:30N 22°33' E 120°19'0 0.0
2018-Feb-13 05:00N 22°33' E 120°19'0 0.0
2018-Feb-13 04:28N 22°33' E 120°19'0 0.0
2018-Feb-13 03:58N 22°33' E 120°19'0 0.0
2018-Feb-13 03:28N 22°33' E 120°19'0 0.0
2018-Feb-13 02:58N 22°33' E 120°19'0 0.0
2018-Feb-13 02:28N 22°33' E 120°19'0 0.0
2018-Feb-13 01:58N 22°33' E 120°19'0 0.0
2018-Feb-13 01:25N 22°33' E 120°19'0 0.1
2018-Feb-13 01:00N 22°33' E 120°19'0 0.1
2018-Feb-13 00:30N 22°33' E 120°19'0 0.0
2018-Feb-13 00:00N 22°33' E 120°19'0 0.0
2018-Feb-12 23:30N 22°33' E 120°19'2 3.9
2018-Feb-12 23:01N 22°33' E 120°17'4 8.5
2018-Feb-12 22:30N 22°31' E 120°13'4 7.1
2018-Feb-12 22:00N 22°34' E 120°11'611.7
2018-Feb-12 21:30N 22°39' E 120°07'611.2
2018-Feb-12 21:00N 22°44' E 120°04'510.9
2018-Feb-12 20:30N 22°48' E 120°01'510.6
2018-Feb-12 20:00N 22°53' E 119°58'510.7
2018-Feb-12 19:30N 22°58' E 119°55'510.2
2018-Feb-12 19:00N 23°03' E 119°54'610.5
2018-Feb-12 18:26N 23°09' E 119°54'511.7
2018-Feb-12 17:59N 23°14' E 119°54'814.2
2018-Feb-12 17:25N 23°22' E 119°53'715.0
2018-Feb-12 16:59N 23°28' E 119°53'715.0
2018-Feb-12 16:30N 23°36' E 119°53'714.6
2018-Feb-12 16:00N 23°43' E 119°52'714.5
2018-Feb-12 15:31N 23°50' E 119°52'7513.6
2018-Feb-12 09:57N 24°58' E 120°27'2613.8
2018-Feb-12 08:05N 25°21' E 120°41'114.5
2018-Feb-12 08:00N 25°22' E 120°42'63713.2
2018-Feb-10 07:48N 35°59' E 120°32'  

Dump ship's entire track history